createdAt,value
2023-04-09T00:00:00.452Z,19.84
2023-04-09T00:01:00.437Z,19.80
2023-04-09T00:02:00.490Z,19.83
2023-04-09T00:03:00.476Z,19.80
2023-04-09T00:04:00.457Z,19.80
2023-04-09T00:05:00.394Z,19.83
2023-04-09T00:06:00.374Z,19.80
2023-04-09T00:07:00.358Z,19.79
2023-04-09T00:08:00.345Z,19.83
2023-04-09T00:09:00.334Z,19.79
2023-04-09T00:10:00.329Z,19.83
2023-04-09T00:11:00.332Z,19.80
2023-04-09T00:12:00.304Z,19.80
2023-04-09T00:13:00.294Z,19.80
2023-04-09T00:14:00.276Z,19.83
2023-04-09T00:15:00.281Z,19.80
2023-04-09T00:16:00.274Z,19.80
2023-04-09T00:17:00.258Z,19.83
2023-04-09T00:18:00.274Z,19.83
2023-04-09T00:19:00.230Z,19.83
2023-04-09T00:20:00.234Z,19.80
2023-04-09T00:21:00.201Z,19.80
2023-04-09T00:22:00.192Z,19.80
2023-04-09T00:23:00.188Z,19.80
2023-04-09T00:24:00.186Z,19.79
2023-04-09T00:25:00.172Z,19.80
2023-04-09T00:26:00.152Z,19.79
2023-04-09T00:27:00.171Z,19.80
2023-04-09T00:28:00.147Z,19.80
2023-04-09T00:29:00.141Z,19.80
2023-04-09T00:30:00.103Z,19.79
2023-04-09T00:31:00.111Z,19.79
2023-04-09T00:32:00.139Z,19.80
2023-04-09T00:33:00.082Z,19.80
2023-04-09T00:34:00.063Z,19.79
2023-04-09T00:35:00.060Z,19.80
2023-04-09T00:36:00.069Z,19.80
2023-04-09T00:37:00.035Z,19.79
2023-04-09T00:38:00.019Z,19.80
2023-04-09T00:39:00.027Z,19.80
2023-04-09T00:39:59.989Z,19.80
2023-04-09T00:40:59.999Z,19.79
2023-04-09T00:41:59.988Z,19.79
2023-04-09T00:42:59.959Z,19.79
2023-04-09T00:43:59.943Z,19.80
2023-04-09T00:44:59.942Z,19.80
2023-04-09T00:46:00.001Z,19.79
2023-04-09T00:46:59.936Z,19.80
2023-04-09T00:48:00.003Z,19.79
2023-04-09T00:48:59.905Z,19.79
2023-04-09T00:49:59.878Z,19.79
2023-04-09T00:50:59.880Z,19.79
2023-04-09T00:51:59.854Z,19.80
2023-04-09T00:52:59.850Z,19.80
2023-04-09T00:53:59.855Z,19.80
2023-04-09T00:54:59.829Z,19.79
2023-04-09T00:55:59.827Z,19.79
2023-04-09T00:56:59.808Z,19.79
2023-04-09T00:57:59.785Z,19.78
2023-04-09T00:58:59.780Z,19.80
2023-04-09T00:59:59.769Z,19.80
2023-04-09T01:00:59.777Z,19.79
2023-04-09T01:01:59.807Z,19.78
2023-04-09T01:02:59.831Z,19.79
2023-04-09T01:03:59.721Z,19.79
2023-04-09T01:04:59.713Z,19.79
2023-04-09T01:05:59.710Z,19.79
2023-04-09T01:06:59.704Z,19.80
2023-04-09T01:07:59.682Z,19.79
2023-04-09T01:08:59.678Z,19.79
2023-04-09T01:09:59.649Z,19.79
2023-04-09T01:10:59.646Z,19.79
2023-04-09T01:11:59.640Z,19.79
2023-04-09T01:12:59.624Z,19.79
2023-04-09T01:13:59.617Z,19.79
2023-04-09T01:14:59.597Z,19.80
2023-04-09T01:15:59.592Z,19.79
2023-04-09T01:16:59.577Z,19.80
2023-04-09T01:17:59.600Z,19.79
2023-04-09T01:18:59.576Z,19.79
2023-04-09T01:19:59.535Z,19.79
2023-04-09T01:20:59.534Z,19.79
2023-04-09T01:21:59.530Z,19.78
2023-04-09T01:22:59.511Z,19.79
2023-04-09T01:23:59.500Z,19.80
2023-04-09T01:24:59.486Z,19.79
2023-04-09T01:25:59.481Z,19.79
2023-04-09T01:26:59.475Z,19.80
2023-04-09T01:27:59.445Z,19.79
2023-04-09T01:28:59.440Z,19.80
2023-04-09T01:29:59.424Z,19.79
2023-04-09T01:30:59.474Z,19.79
2023-04-09T01:31:59.423Z,19.80
2023-04-09T01:32:59.473Z,19.79
2023-04-09T01:33:59.382Z,19.79
2023-04-09T01:34:59.383Z,19.80
2023-04-09T01:35:59.399Z,19.79
2023-04-09T01:36:59.366Z,19.79
2023-04-09T01:37:59.333Z,19.79
2023-04-09T01:38:59.329Z,19.79
2023-04-09T01:39:59.314Z,19.80
2023-04-09T01:40:59.308Z,19.79
2023-04-09T01:41:59.308Z,19.80
2023-04-09T01:42:59.290Z,19.79
2023-04-09T01:43:59.268Z,19.80
2023-04-09T01:44:59.264Z,19.80
2023-04-09T01:45:59.264Z,19.79
2023-04-09T01:46:59.253Z,19.80
2023-04-09T01:47:59.248Z,19.83
2023-04-09T01:48:59.221Z,19.83
2023-04-09T01:49:59.206Z,19.80
2023-04-09T01:50:59.220Z,19.79
2023-04-09T01:51:59.205Z,19.83
2023-04-09T01:52:59.178Z,19.83
2023-04-09T01:53:59.161Z,19.80
2023-04-09T01:54:59.150Z,19.79
2023-04-09T01:55:59.134Z,19.80
2023-04-09T01:56:59.151Z,19.78
2023-04-09T01:57:59.112Z,19.80
2023-04-09T01:58:59.111Z,19.79
2023-04-09T01:59:59.096Z,19.80
2023-04-09T02:00:59.111Z,19.79
2023-04-09T02:01:59.334Z,19.80
2023-04-09T02:02:59.205Z,19.80
2023-04-09T02:03:59.112Z,19.80
2023-04-09T02:04:59.044Z,19.79
2023-04-09T02:05:59.030Z,19.80
2023-04-09T02:06:59.023Z,19.79
2023-04-09T02:07:59.006Z,19.80
2023-04-09T02:08:58.995Z,19.79
2023-04-09T02:09:58.977Z,19.80
2023-04-09T02:10:58.974Z,19.80
2023-04-09T02:11:58.987Z,19.79
2023-04-09T02:12:58.960Z,19.79
2023-04-09T02:13:58.933Z,19.80
2023-04-09T02:14:58.925Z,19.80
2023-04-09T02:15:58.930Z,19.80
2023-04-09T02:16:58.916Z,19.80
2023-04-09T02:17:58.926Z,19.80
2023-04-09T02:18:58.881Z,19.80
2023-04-09T02:19:58.867Z,19.78
2023-04-09T02:20:58.881Z,19.79
2023-04-09T02:21:58.854Z,19.80
2023-04-09T02:22:58.847Z,19.79
2023-04-09T02:23:58.830Z,19.83
2023-04-09T02:24:58.826Z,19.80
2023-04-09T02:25:58.797Z,19.79
2023-04-09T02:26:58.821Z,19.79
2023-04-09T02:27:58.780Z,19.79
2023-04-09T02:28:58.786Z,19.79
2023-04-09T02:29:58.775Z,19.80
2023-04-09T02:30:58.800Z,19.80
2023-04-09T02:31:58.754Z,19.80
2023-04-09T02:32:58.781Z,19.83
2023-04-09T02:33:58.709Z,19.79
2023-04-09T02:34:58.709Z,19.80
2023-04-09T02:35:58.723Z,19.80
2023-04-09T02:36:58.687Z,19.79
2023-04-09T02:37:58.744Z,19.80
2023-04-09T02:38:58.673Z,19.80
2023-04-09T02:39:58.644Z,19.80
2023-04-09T02:40:58.640Z,19.79
2023-04-09T02:41:58.633Z,19.80
2023-04-09T02:42:58.619Z,19.83
2023-04-09T02:43:58.604Z,19.80
2023-04-09T02:44:58.606Z,19.80
2023-04-09T02:45:58.603Z,19.79
2023-04-09T02:46:58.592Z,19.80
2023-04-09T02:47:58.564Z,19.80
2023-04-09T02:48:58.550Z,19.79
2023-04-09T02:49:58.535Z,19.80
2023-04-09T02:50:58.550Z,19.78
2023-04-09T02:51:58.519Z,19.80
2023-04-09T02:52:58.513Z,19.83
2023-04-09T02:53:58.499Z,19.80
2023-04-09T02:54:58.492Z,19.80
2023-04-09T02:55:58.547Z,19.80
2023-04-09T02:56:58.484Z,19.80
2023-04-09T02:57:58.454Z,19.80
2023-04-09T02:58:58.448Z,19.80
2023-04-09T02:59:58.433Z,19.83
2023-04-09T03:00:58.423Z,19.80
2023-04-09T03:01:58.641Z,19.80
2023-04-09T03:02:58.542Z,19.83
2023-04-09T03:03:58.413Z,19.80
2023-04-09T03:04:58.388Z,19.80
2023-04-09T03:05:58.361Z,19.80
2023-04-09T03:06:58.378Z,19.80
2023-04-09T03:07:58.352Z,19.80
2023-04-09T03:08:58.335Z,19.80
2023-04-09T03:09:58.328Z,19.80
2023-04-09T03:10:58.305Z,19.83
2023-04-09T03:11:58.296Z,19.83
2023-04-09T03:12:58.312Z,19.80
2023-04-09T03:13:58.266Z,19.80
2023-04-09T03:14:58.273Z,19.79
2023-04-09T03:15:58.288Z,19.80
2023-04-09T03:16:58.238Z,19.83
2023-04-09T03:17:58.313Z,19.80
2023-04-09T03:18:58.217Z,19.80
2023-04-09T03:19:58.214Z,19.80
2023-04-09T03:20:58.191Z,19.83
2023-04-09T03:21:58.185Z,19.80
2023-04-09T03:22:58.172Z,19.80
2023-04-09T03:23:58.179Z,19.80
2023-04-09T03:24:58.147Z,19.80
2023-04-09T03:25:58.139Z,19.80
2023-04-09T03:26:58.295Z,19.83
2023-04-09T03:27:58.133Z,19.80
2023-04-09T03:28:58.102Z,19.80
2023-04-09T03:29:58.110Z,19.80
2023-04-09T03:30:58.096Z,19.80
2023-04-09T03:31:58.078Z,19.80
2023-04-09T03:32:58.170Z,19.79
2023-04-09T03:33:58.052Z,19.80
2023-04-09T03:34:58.046Z,19.80
2023-04-09T03:35:58.093Z,19.80
2023-04-09T03:36:58.015Z,19.80
2023-04-09T03:37:58.006Z,19.80
2023-04-09T03:38:57.990Z,19.80
2023-04-09T03:39:57.988Z,19.80
2023-04-09T03:40:57.981Z,19.80
2023-04-09T03:41:57.960Z,19.80
2023-04-09T03:42:57.944Z,19.79
2023-04-09T03:43:57.978Z,19.80
2023-04-09T03:44:57.925Z,19.83
2023-04-09T03:45:57.938Z,19.83
2023-04-09T03:46:57.937Z,19.83
2023-04-09T03:47:58.084Z,19.83
2023-04-09T03:48:57.880Z,19.80
2023-04-09T03:49:57.879Z,19.84
2023-04-09T03:50:57.858Z,19.86
2023-04-09T03:51:57.849Z,19.87
2023-04-09T03:52:57.835Z,19.87
2023-04-09T03:53:57.843Z,19.90
2023-04-09T03:54:57.812Z,19.90
2023-04-09T03:55:57.822Z,19.90
2023-04-09T03:56:57.790Z,19.93
2023-04-09T03:57:57.783Z,19.93
2023-04-09T03:58:57.781Z,19.94
2023-04-09T03:59:57.765Z,19.95
2023-04-09T04:00:57.750Z,19.97
2023-04-09T04:01:57.780Z,19.95
2023-04-09T04:02:57.941Z,20.00
2023-04-09T04:03:57.785Z,20.00
2023-04-09T04:04:57.707Z,20.00
2023-04-09T04:05:57.694Z,20.00
2023-04-09T04:06:57.675Z,20.00
2023-04-09T04:07:57.688Z,20.02
2023-04-09T04:08:57.651Z,20.03
2023-04-09T04:09:57.661Z,20.03
2023-04-09T04:10:57.635Z,20.03
2023-04-09T04:11:57.624Z,20.05
2023-04-09T04:12:57.627Z,20.05
2023-04-09T04:13:57.615Z,20.05
2023-04-09T04:14:57.595Z,20.06
2023-04-09T04:15:57.693Z,20.05
2023-04-09T04:16:57.572Z,20.05
2023-04-09T04:17:57.621Z,20.03
2023-04-09T04:18:57.551Z,20.06
2023-04-09T04:19:57.567Z,20.05
2023-04-09T04:20:57.536Z,20.06
2023-04-09T04:21:57.509Z,20.05
2023-04-09T04:22:57.496Z,20.03
2023-04-09T04:23:57.494Z,20.05
2023-04-09T04:24:57.473Z,20.03
2023-04-09T04:25:57.476Z,20.05
2023-04-09T04:26:57.455Z,20.03
2023-04-09T04:27:57.442Z,20.03
2023-04-09T04:28:57.439Z,20.03
2023-04-09T04:29:57.423Z,20.02
2023-04-09T04:30:57.406Z,20.02
2023-04-09T04:31:57.415Z,20.00
2023-04-09T04:32:57.413Z,20.00
2023-04-09T04:33:57.388Z,20.00
2023-04-09T04:34:57.397Z,20.00
2023-04-09T04:35:57.427Z,20.00
2023-04-09T04:36:57.342Z,19.98
2023-04-09T04:37:57.334Z,20.00
2023-04-09T04:38:57.343Z,20.00
2023-04-09T04:39:57.314Z,20.00
2023-04-09T04:40:57.294Z,20.00
2023-04-09T04:41:57.305Z,20.00
2023-04-09T04:42:57.282Z,20.00
2023-04-09T04:43:57.275Z,20.00
2023-04-09T04:44:57.253Z,20.00
2023-04-09T04:45:57.257Z,19.98
2023-04-09T04:46:57.230Z,20.00
2023-04-09T04:47:57.265Z,20.00
2023-04-09T04:48:57.296Z,20.00
2023-04-09T04:49:57.202Z,20.00
2023-04-09T04:50:57.183Z,19.98
2023-04-09T04:51:57.186Z,20.00
2023-04-09T04:52:57.175Z,20.00
2023-04-09T04:53:57.160Z,20.00
2023-04-09T04:54:57.136Z,20.00
2023-04-09T04:55:57.135Z,20.00
2023-04-09T04:56:57.132Z,20.02
2023-04-09T04:57:57.115Z,20.02
2023-04-09T04:58:57.094Z,20.00
2023-04-09T04:59:57.101Z,20.00
2023-04-09T05:00:57.111Z,20.02
2023-04-09T05:01:57.169Z,20.02
2023-04-09T05:02:57.149Z,20.03
2023-04-09T05:03:57.204Z,20.00
2023-04-09T05:04:57.026Z,20.00
2023-04-09T05:05:57.024Z,20.00
2023-04-09T05:06:57.041Z,20.02
2023-04-09T05:07:56.998Z,20.03
2023-04-09T05:08:56.982Z,20.02
2023-04-09T05:09:56.986Z,20.03
2023-04-09T05:10:56.983Z,20.05
2023-04-09T05:11:56.959Z,20.02
2023-04-09T05:12:56.942Z,20.02
2023-04-09T05:13:56.936Z,20.03
2023-04-09T05:14:56.915Z,20.03
2023-04-09T05:15:56.933Z,20.05
2023-04-09T05:16:56.986Z,20.03
2023-04-09T05:17:56.937Z,20.03
2023-04-09T05:18:56.871Z,20.06
2023-04-09T05:19:56.864Z,20.05
2023-04-09T05:20:56.856Z,20.05
2023-04-09T05:21:56.858Z,20.05
2023-04-09T05:22:56.830Z,20.05
2023-04-09T05:23:56.827Z,20.06
2023-04-09T05:24:56.816Z,20.06
2023-04-09T05:25:56.797Z,20.06
2023-04-09T05:26:56.786Z,20.08
2023-04-09T05:27:56.785Z,20.06
2023-04-09T05:28:56.873Z,20.06
2023-04-09T05:29:58.516Z,20.06
2023-04-09T05:30:56.763Z,20.08
2023-04-09T05:31:56.736Z,20.08
2023-04-09T05:32:56.752Z,20.06
2023-04-09T05:33:56.713Z,20.08
2023-04-09T05:34:56.717Z,20.08
2023-04-09T05:35:56.757Z,20.08
2023-04-09T05:36:56.683Z,20.09
2023-04-09T05:37:56.669Z,20.09
2023-04-09T05:38:56.653Z,20.09
2023-04-09T05:39:56.644Z,20.09
2023-04-09T05:40:56.639Z,20.09
2023-04-09T05:41:56.639Z,20.12
2023-04-09T05:42:56.625Z,20.09
2023-04-09T05:43:57.877Z,20.08
2023-04-09T05:44:56.605Z,20.10
2023-04-09T05:45:56.613Z,20.09
2023-04-09T05:46:56.568Z,20.08
2023-04-09T05:47:56.643Z,20.08
2023-04-09T05:48:56.544Z,20.09
2023-04-09T05:49:56.603Z,20.09
2023-04-09T05:50:56.817Z,20.09
2023-04-09T05:51:56.528Z,20.09
2023-04-09T05:52:56.496Z,20.09
2023-04-09T05:53:56.501Z,20.09
2023-04-09T05:54:56.483Z,20.08
2023-04-09T05:55:56.485Z,20.09
2023-04-09T05:56:56.455Z,20.08
2023-04-09T05:57:56.450Z,20.09
2023-04-09T05:58:56.429Z,20.09
2023-04-09T05:59:56.422Z,20.09
2023-04-09T06:00:56.422Z,20.10
2023-04-09T06:01:56.427Z,20.09
2023-04-09T06:02:56.492Z,20.09
2023-04-09T06:03:58.541Z,20.09
2023-04-09T06:04:56.419Z,20.09
2023-04-09T06:05:56.353Z,20.10
2023-04-09T06:06:56.341Z,20.10
2023-04-09T06:07:56.347Z,20.10
2023-04-09T06:08:56.318Z,20.09
2023-04-09T06:09:56.307Z,20.10
2023-04-09T06:10:56.303Z,20.09
2023-04-09T06:11:56.289Z,20.09
2023-04-09T06:12:56.277Z,20.09
2023-04-09T06:13:56.271Z,20.10
2023-04-09T06:14:56.263Z,20.10
2023-04-09T06:15:56.259Z,20.09
2023-04-09T06:16:56.236Z,20.09
2023-04-09T06:17:58.835Z,20.10
2023-04-09T06:18:56.164Z,20.10
2023-04-09T06:19:56.153Z,20.09
2023-04-09T06:20:56.181Z,20.09
2023-04-09T06:21:56.186Z,20.08
2023-04-09T06:22:56.164Z,20.08
2023-04-09T06:23:56.120Z,20.09
2023-04-09T06:24:56.087Z,20.09
2023-04-09T06:25:56.132Z,20.08
2023-04-09T06:26:56.126Z,20.09
2023-04-09T06:27:56.068Z,20.08
2023-04-09T06:28:56.048Z,20.10
2023-04-09T06:29:56.036Z,20.09
2023-04-09T06:30:56.103Z,20.09
2023-04-09T06:31:56.079Z,20.09
2023-04-09T06:32:56.092Z,20.09
2023-04-09T06:33:56.444Z,20.09
2023-04-09T06:34:56.083Z,20.08
2023-04-09T06:35:56.034Z,20.09
2023-04-09T06:36:56.020Z,20.09
2023-04-09T06:37:56.009Z,20.10
2023-04-09T06:38:55.941Z,20.09
2023-04-09T06:40:01.087Z,20.10
2023-04-09T06:40:55.966Z,20.09
2023-04-09T06:41:55.973Z,20.10
2023-04-09T06:42:55.899Z,20.09
2023-04-09T06:43:55.947Z,20.09
2023-04-09T06:44:55.915Z,20.09
2023-04-09T06:45:55.910Z,20.10
2023-04-09T06:46:55.929Z,20.10
2023-04-09T06:47:55.921Z,20.10
2023-04-09T06:48:55.822Z,20.10
2023-04-09T06:49:55.814Z,20.09
2023-04-09T06:50:55.793Z,20.12
2023-04-09T06:51:55.786Z,20.10
2023-04-09T06:52:55.783Z,20.10
2023-04-09T06:53:56.034Z,20.10
2023-04-09T06:54:55.749Z,20.12
2023-04-09T06:55:57.026Z,20.10
2023-04-09T06:56:55.730Z,20.12
2023-04-09T06:57:55.732Z,20.10
2023-04-09T06:58:55.721Z,20.12
2023-04-09T06:59:55.697Z,20.12
2023-04-09T07:00:55.687Z,20.12
2023-04-09T07:01:55.743Z,20.12
2023-04-09T07:02:55.936Z,20.12
2023-04-09T07:03:55.835Z,20.12
2023-04-09T07:04:55.641Z,20.13
2023-04-09T07:05:55.645Z,20.13
2023-04-09T07:06:55.624Z,20.12
2023-04-09T07:07:55.620Z,20.12
2023-04-09T07:08:55.830Z,20.12
2023-04-09T07:09:55.599Z,20.15
2023-04-09T07:10:55.586Z,20.13
2023-04-09T07:11:55.574Z,20.13
2023-04-09T07:12:55.557Z,20.15
2023-04-09T07:13:55.788Z,20.13
2023-04-09T07:14:55.622Z,20.13
2023-04-09T07:15:55.542Z,20.13
2023-04-09T07:16:55.516Z,20.13
2023-04-09T07:17:55.514Z,20.13
2023-04-09T07:18:55.488Z,20.12
2023-04-09T07:19:55.484Z,20.16
2023-04-09T07:20:55.475Z,20.13
2023-04-09T07:21:55.471Z,20.13
2023-04-09T07:22:55.468Z,20.16
2023-04-09T07:23:55.463Z,20.13
2023-04-09T07:24:55.419Z,20.16
2023-04-09T07:25:55.416Z,20.13
2023-04-09T07:26:55.658Z,20.15
2023-04-09T07:27:55.394Z,20.16
2023-04-09T07:28:55.374Z,20.15
2023-04-09T07:29:55.368Z,20.16
2023-04-09T07:30:55.358Z,20.16
2023-04-09T07:31:55.458Z,20.16
2023-04-09T07:32:55.401Z,20.15
2023-04-09T07:33:55.492Z,20.15
2023-04-09T07:34:55.319Z,20.18
2023-04-09T07:35:56.058Z,20.16
2023-04-09T07:36:55.296Z,20.16
2023-04-09T07:37:55.279Z,20.18
2023-04-09T07:38:55.464Z,20.16
2023-04-09T07:39:55.263Z,20.16
2023-04-09T07:40:55.243Z,20.16
2023-04-09T07:41:55.244Z,20.18
2023-04-09T07:42:55.226Z,20.18
2023-04-09T07:43:55.217Z,20.16
2023-04-09T07:44:55.201Z,20.18
2023-04-09T07:45:55.184Z,20.18
2023-04-09T07:46:55.226Z,20.18
2023-04-09T07:47:55.206Z,20.18
2023-04-09T07:48:55.395Z,20.18
2023-04-09T07:49:55.244Z,20.20
2023-04-09T07:50:55.131Z,20.18
2023-04-09T07:51:55.121Z,20.20
2023-04-09T07:52:55.117Z,20.20
2023-04-09T07:53:55.110Z,20.18
2023-04-09T07:54:55.088Z,20.20
2023-04-09T07:55:55.080Z,20.20
2023-04-09T07:56:55.069Z,20.20
2023-04-09T07:57:55.060Z,20.21
2023-04-09T07:58:55.163Z,20.20
2023-04-09T07:59:55.025Z,20.21
2023-04-09T08:00:55.033Z,20.21
2023-04-09T08:01:55.037Z,20.20
2023-04-09T08:02:55.400Z,20.21
2023-04-09T08:03:55.149Z,20.21
2023-04-09T08:04:55.107Z,20.20
2023-04-09T08:05:54.974Z,20.20
2023-04-09T08:06:54.958Z,20.21
2023-04-09T08:07:54.970Z,20.20
2023-04-09T08:08:55.147Z,20.23
2023-04-09T08:09:54.919Z,20.21
2023-04-09T08:10:54.932Z,20.21
2023-04-09T08:11:54.928Z,20.21
2023-04-09T08:12:54.899Z,20.23
2023-04-09T08:13:54.887Z,20.21
2023-04-09T08:14:54.946Z,20.23
2023-04-09T08:15:54.861Z,20.21
2023-04-09T08:16:54.912Z,20.21
2023-04-09T08:17:54.878Z,20.23
2023-04-09T08:18:55.082Z,20.23
2023-04-09T08:19:54.814Z,20.24
2023-04-09T08:20:54.806Z,20.24
2023-04-09T08:21:54.804Z,20.24
2023-04-09T08:22:54.779Z,20.24
2023-04-09T08:23:54.762Z,20.24
2023-04-09T08:24:54.756Z,20.24
2023-04-09T08:25:54.737Z,20.23
2023-04-09T08:26:54.748Z,20.24
2023-04-09T08:27:54.718Z,20.24
2023-04-09T08:28:54.973Z,20.24
2023-04-09T08:29:54.698Z,20.24
2023-04-09T08:30:54.692Z,20.25
2023-04-09T08:31:54.710Z,20.25
2023-04-09T08:32:54.721Z,20.25
2023-04-09T08:33:54.653Z,20.24
2023-04-09T08:34:54.651Z,20.25
2023-04-09T08:35:54.639Z,20.25
2023-04-09T08:36:54.663Z,20.24
2023-04-09T08:37:54.640Z,20.27
2023-04-09T08:38:54.997Z,20.27
2023-04-09T08:39:54.582Z,20.25
2023-04-09T08:40:54.579Z,20.27
2023-04-09T08:41:54.567Z,20.27
2023-04-09T08:42:54.570Z,20.25
2023-04-09T08:43:58.232Z,20.27
2023-04-09T08:44:54.527Z,20.27
2023-04-09T08:45:54.550Z,20.25
2023-04-09T08:46:54.543Z,20.27
2023-04-09T08:47:54.529Z,20.25
2023-04-09T08:48:54.734Z,20.27
2023-04-09T08:49:54.480Z,20.27
2023-04-09T08:50:54.535Z,20.27
2023-04-09T08:51:54.462Z,20.25
2023-04-09T08:52:54.520Z,20.25
2023-04-09T08:53:54.430Z,20.25
2023-04-09T08:54:54.464Z,20.27
2023-04-09T08:55:54.401Z,20.27
2023-04-09T08:56:54.415Z,20.25
2023-04-09T08:57:54.393Z,20.24
2023-04-09T08:58:54.764Z,20.25
2023-04-09T08:59:54.357Z,20.25
2023-04-09T09:00:54.388Z,20.25
2023-04-09T09:01:54.747Z,20.25
2023-04-09T09:02:54.436Z,20.25
2023-04-09T09:03:54.413Z,20.27
2023-04-09T09:04:54.306Z,20.27
2023-04-09T09:05:54.298Z,20.25
2023-04-09T09:06:55.559Z,20.25
2023-04-09T09:07:54.275Z,20.25
2023-04-09T09:08:54.549Z,20.25
2023-04-09T09:09:54.238Z,20.25
2023-04-09T09:10:54.249Z,20.25
2023-04-09T09:11:54.229Z,20.24
2023-04-09T09:12:54.219Z,20.24
2023-04-09T09:13:54.211Z,20.27
2023-04-09T09:14:54.192Z,20.24
2023-04-09T09:15:54.185Z,20.25
2023-04-09T09:16:54.192Z,20.24
2023-04-09T09:17:54.208Z,20.25
2023-04-09T09:18:54.776Z,20.25
2023-04-09T09:19:54.137Z,20.25
2023-04-09T09:20:54.126Z,20.24
2023-04-09T09:21:54.122Z,20.24
2023-04-09T09:22:55.032Z,20.25
2023-04-09T09:23:54.089Z,20.24
2023-04-09T09:24:54.135Z,20.23
2023-04-09T09:25:54.124Z,20.23
2023-04-09T09:26:54.070Z,20.25
2023-04-09T09:27:54.058Z,20.23
2023-04-09T09:28:54.354Z,20.23
2023-04-09T09:29:54.021Z,20.23
2023-04-09T09:30:54.088Z,20.23
2023-04-09T09:31:54.009Z,20.23
2023-04-09T09:32:54.003Z,20.24
2023-04-09T09:33:53.997Z,20.23
2023-04-09T09:34:53.977Z,20.23
2023-04-09T09:35:54.015Z,20.24
2023-04-09T09:36:53.953Z,20.23
2023-04-09T09:37:53.933Z,20.23
2023-04-09T09:38:54.330Z,20.21
2023-04-09T09:39:53.925Z,20.21
2023-04-09T09:40:53.919Z,20.24
2023-04-09T09:41:53.952Z,20.23
2023-04-09T09:42:53.883Z,20.23
2023-04-09T09:43:53.885Z,20.23
2023-04-09T09:44:53.873Z,20.21
2023-04-09T09:45:53.877Z,20.23
2023-04-09T09:46:53.853Z,20.23
2023-04-09T09:47:53.978Z,20.23
2023-04-09T09:48:54.185Z,20.21
2023-04-09T09:49:53.812Z,20.23
2023-04-09T09:50:53.809Z,20.23
2023-04-09T09:51:53.779Z,20.23
2023-04-09T09:52:53.802Z,20.21
2023-04-09T09:53:53.757Z,20.21
2023-04-09T09:54:53.773Z,20.21
2023-04-09T09:55:53.752Z,20.21
2023-04-09T09:56:53.742Z,20.23
2023-04-09T09:57:53.711Z,20.20
2023-04-09T09:58:53.980Z,20.21
2023-04-09T09:59:53.704Z,20.21
2023-04-09T10:00:53.686Z,20.21
2023-04-09T10:01:53.743Z,20.21
2023-04-09T10:02:53.818Z,20.21
2023-04-09T10:03:53.658Z,20.21
2023-04-09T10:04:53.739Z,20.20
2023-04-09T10:05:53.640Z,20.21
2023-04-09T10:06:53.725Z,20.21
2023-04-09T10:07:53.605Z,20.21
2023-04-09T10:08:53.790Z,20.20
2023-04-09T10:09:53.588Z,20.20
2023-04-09T10:10:53.574Z,20.20
2023-04-09T10:11:53.567Z,20.20
2023-04-09T10:12:53.551Z,20.18
2023-04-09T10:13:54.627Z,20.18
2023-04-09T10:14:53.587Z,20.20
2023-04-09T10:15:53.617Z,20.20
2023-04-09T10:16:53.586Z,20.20
2023-04-09T10:17:53.582Z,20.20
2023-04-09T10:18:53.720Z,20.20
2023-04-09T10:19:53.527Z,20.20
2023-04-09T10:20:53.485Z,20.20
2023-04-09T10:21:53.462Z,20.20
2023-04-09T10:22:53.442Z,20.18
2023-04-09T10:23:53.427Z,20.18
2023-04-09T10:24:53.431Z,20.18
2023-04-09T10:25:53.420Z,20.18
2023-04-09T10:26:53.401Z,20.16
2023-04-09T10:27:53.389Z,20.18
2023-04-09T10:28:53.616Z,20.16
2023-04-09T10:29:53.424Z,20.18
2023-04-09T10:30:53.523Z,20.18
2023-04-09T10:31:53.398Z,20.16
2023-04-09T10:32:53.407Z,20.16
2023-04-09T10:33:53.318Z,20.16
2023-04-09T10:34:53.309Z,20.15
2023-04-09T10:35:53.296Z,20.18
2023-04-09T10:36:53.353Z,20.18
2023-04-09T10:37:53.322Z,20.16
2023-04-09T10:38:53.463Z,20.18
2023-04-09T10:39:53.303Z,20.18
2023-04-09T10:40:53.293Z,20.16
2023-04-09T10:41:53.283Z,20.15
2023-04-09T10:42:53.277Z,20.16
2023-04-09T10:43:53.262Z,20.13
2023-04-09T10:44:53.280Z,20.15
2023-04-09T10:45:53.256Z,20.16
2023-04-09T10:46:53.333Z,20.16
2023-04-09T10:47:53.259Z,20.16
2023-04-09T10:48:53.269Z,20.13
2023-04-09T10:49:53.188Z,20.15
2023-04-09T10:50:53.195Z,20.15
2023-04-09T10:51:53.178Z,20.16
2023-04-09T10:52:53.172Z,20.16
2023-04-09T10:53:53.155Z,20.16
2023-04-09T10:54:53.143Z,20.13
2023-04-09T10:55:53.134Z,20.15
2023-04-09T10:56:53.131Z,20.15
2023-04-09T10:57:53.106Z,20.15
2023-04-09T10:58:53.333Z,20.13
2023-04-09T10:59:53.088Z,20.15
2023-04-09T11:00:53.080Z,20.15
2023-04-09T11:01:53.216Z,20.13
2023-04-09T11:02:53.262Z,20.13
2023-04-09T11:03:53.046Z,20.13
2023-04-09T11:04:53.045Z,20.15
2023-04-09T11:05:53.024Z,20.15
2023-04-09T11:06:53.004Z,20.15
2023-04-09T11:07:53.001Z,20.13
2023-04-09T11:08:53.280Z,20.16
2023-04-09T11:09:52.968Z,20.15
2023-04-09T11:10:52.960Z,20.15
2023-04-09T11:11:52.949Z,20.13
2023-04-09T11:12:52.947Z,20.15
2023-04-09T11:13:52.924Z,20.13
2023-04-09T11:14:52.915Z,20.13
2023-04-09T11:15:52.937Z,20.12
2023-04-09T11:16:52.891Z,20.13
2023-04-09T11:17:52.959Z,20.13
2023-04-09T11:18:53.011Z,20.13
2023-04-09T11:19:52.852Z,20.15
2023-04-09T11:20:52.846Z,20.15
2023-04-09T11:21:52.840Z,20.13
2023-04-09T11:22:52.822Z,20.13
2023-04-09T11:23:52.836Z,20.12
2023-04-09T11:24:52.806Z,20.12
2023-04-09T11:25:52.796Z,20.13
2023-04-09T11:26:52.785Z,20.12
2023-04-09T11:27:52.761Z,20.12
2023-04-09T11:28:53.071Z,20.12
2023-04-09T11:29:52.737Z,20.13
2023-04-09T11:30:52.772Z,20.12
2023-04-09T11:31:52.821Z,20.12
2023-04-09T11:32:52.782Z,20.10
2023-04-09T11:33:52.697Z,20.12
2023-04-09T11:34:52.710Z,20.10
2023-04-09T11:35:52.715Z,20.12
2023-04-09T11:36:52.670Z,20.12
2023-04-09T11:37:52.666Z,20.13
2023-04-09T11:38:52.883Z,20.12
2023-04-09T11:39:52.627Z,20.13
2023-04-09T11:40:52.618Z,20.12
2023-04-09T11:41:52.628Z,20.13
2023-04-09T11:42:52.598Z,20.12
2023-04-09T11:43:52.598Z,20.13
2023-04-09T11:44:52.568Z,20.12
2023-04-09T11:45:52.560Z,20.10
2023-04-09T11:46:52.567Z,20.12
2023-04-09T11:47:52.562Z,20.13
2023-04-09T11:48:52.730Z,20.12
2023-04-09T11:49:52.521Z,20.12
2023-04-09T11:50:52.505Z,20.12
2023-04-09T11:51:52.494Z,20.12
2023-04-09T11:52:52.534Z,20.12
2023-04-09T11:53:52.492Z,20.12
2023-04-09T11:54:52.464Z,20.10
2023-04-09T11:55:52.536Z,20.10
2023-04-09T11:56:52.441Z,20.10
2023-04-09T11:57:52.440Z,20.12
2023-04-09T11:58:52.571Z,20.10
2023-04-09T11:59:52.421Z,20.10
2023-04-09T12:00:52.409Z,20.09
2023-04-09T12:01:52.484Z,20.10
2023-04-09T12:02:52.556Z,20.09
2023-04-09T12:03:52.455Z,20.10
2023-04-09T12:04:52.394Z,20.09
2023-04-09T12:05:52.346Z,20.09
2023-04-09T12:06:52.331Z,20.09
2023-04-09T12:07:56.237Z,20.09
2023-04-09T12:08:52.439Z,20.09
2023-04-09T12:09:52.323Z,20.09
2023-04-09T12:10:53.679Z,20.08
2023-04-09T12:11:52.336Z,20.09
2023-04-09T12:12:52.271Z,20.08
2023-04-09T12:13:52.261Z,20.09
2023-04-09T12:14:52.257Z,20.08
2023-04-09T12:15:52.239Z,20.09
2023-04-09T12:16:52.323Z,20.08
2023-04-09T12:17:52.266Z,20.08
2023-04-09T12:18:52.424Z,20.08
2023-04-09T12:19:52.200Z,20.08
2023-04-09T12:20:52.185Z,20.08
2023-04-09T12:21:52.181Z,20.08
2023-04-09T12:22:52.153Z,20.08
2023-04-09T12:23:52.148Z,20.06
2023-04-09T12:24:52.148Z,20.06
2023-04-09T12:25:52.131Z,20.08
2023-04-09T12:26:52.110Z,20.08
2023-04-09T12:27:52.109Z,20.06
2023-04-09T12:28:52.249Z,20.06
2023-04-09T12:29:52.082Z,20.06
2023-04-09T12:30:52.081Z,20.06
2023-04-09T12:31:52.104Z,20.06
2023-04-09T12:32:52.096Z,20.06
2023-04-09T12:33:52.041Z,20.06
2023-04-09T12:34:52.029Z,20.05
2023-04-09T12:35:52.068Z,20.08
2023-04-09T12:36:52.005Z,20.06
2023-04-09T12:37:52.011Z,20.05
2023-04-09T12:38:52.218Z,20.06
2023-04-09T12:39:51.976Z,20.05
2023-04-09T12:40:52.024Z,20.08
2023-04-09T12:41:51.961Z,20.06
2023-04-09T12:42:51.930Z,20.05
2023-04-09T12:43:52.179Z,20.06
2023-04-09T12:44:51.906Z,20.06
2023-04-09T12:45:51.907Z,20.06
2023-04-09T12:46:51.902Z,20.05
2023-04-09T12:47:51.898Z,20.06
2023-04-09T12:48:51.865Z,20.06
2023-04-09T12:49:51.856Z,20.05
2023-04-09T12:50:51.847Z,20.06
2023-04-09T12:51:51.849Z,20.03